Time;durP1;ratioP1;P1;durP2;ratioP2;P2;SDS_P1;SDS_P2;PMS_P1;PMS_P2;Temp;Humidity;BMP_temperature;BMP_pressure;BME280_temperature;BME280_humidity;BME280_pressure;Samples;Min_cycle;Max_cycle;Signal;HPM_P1;HPM_P2
2023/01/30 00:00:55;;;;;;;7.60;3.50;;;23.10;39.30;;;;;;5070585;28;20203;-77
2023/01/30 00:03:24;;;;;;;7.03;3.33;;;23.20;39.50;;;;;;5070437;28;20239;-79
2023/01/30 00:05:51;;;;;;;9.40;3.80;;;23.20;39.50;;;;;;5070202;28;20931;-85
2023/01/30 00:08:18;;;;;;;9.40;3.77;;;23.20;39.50;;;;;;5070550;28;20195;-82
2023/01/30 00:10:45;;;;;;;7.77;3.20;;;23.10;40.00;;;;;;5070315;28;20677;-84
2023/01/30 00:13:14;;;;;;;10.43;4.33;;;23.10;40.00;;;;;;5067975;28;20210;-80
2023/01/30 00:15:41;;;;;;;8.53;3.53;;;23.20;39.50;;;;;;5054059;28;20220;-76
2023/01/30 00:18:08;;;;;;;8.43;3.63;;;23.10;39.40;;;;;;5054191;28;20199;-69
2023/01/30 00:20:37;;;;;;;9.77;3.73;;;23.10;39.40;;;;;;5067141;28;20241;-72
2023/01/30 00:23:04;;;;;;;6.40;2.77;;;23.10;39.50;;;;;;5068730;28;20199;-83
2023/01/30 00:25:31;;;;;;;12.57;4.37;;;23.20;39.50;;;;;;5068643;28;20206;-66
2023/01/30 00:28:00;;;;;;;14.97;5.30;;;23.20;39.60;;;;;;5068117;28;20233;-76
2023/01/30 00:30:27;;;;;;;7.80;3.43;;;23.20;39.50;;;;;;5068532;28;20199;-82
2023/01/30 00:32:55;;;;;;;7.70;3.27;;;23.20;39.50;;;;;;5066739;28;20195;-78
2023/01/30 00:35:27;;;;;;;8.00;3.80;;;23.10;39.50;;;;;;5068980;28;20199;-75
2023/01/30 00:37:56;;;;;;;7.73;3.40;;;23.10;39.50;;;;;;5069262;28;20199;-74
2023/01/30 00:40:24;;;;;;;8.70;3.67;;;23.10;39.50;;;;;;5070161;28;20231;-85
2023/01/30 00:48:22;;;;;;;12.50;4.63;;;23.10;39.50;;;;;;5069691;28;20244;-72
2023/01/30 00:50:49;;;;;;;11.70;4.37;;;23.10;39.50;;;;;;5066124;28;20223;-76
2023/01/30 00:53:17;;;;;;;9.83;3.73;;;23.10;39.60;;;;;;5068242;28;20206;-81
2023/01/30 00:55:44;;;;;;;11.03;4.33;;;23.20;39.70;;;;;;5067672;28;20210;-87
2023/01/30 00:58:11;;;;;;;9.37;3.73;;;23.10;39.70;;;;;;5060681;28;20249;-75
2023/01/30 01:00:39;;;;;;;13.47;4.97;;;23.10;39.70;;;;;;5055445;28;20699;-82
2023/01/30 01:03:06;;;;;;;11.20;4.27;;;23.10;39.70;;;;;;5065821;28;20632;-68
2023/01/30 01:05:33;;;;;;;8.30;3.43;;;23.10;39.70;;;;;;5062070;28;20221;-83
2023/01/30 01:07:59;;;;;;;10.93;4.23;;;23.20;39.80;;;;;;5058838;28;20285;-79
2023/01/30 01:10:28;;;;;;;9.77;3.93;;;23.20;39.80;;;;;;5058388;28;20216;-74
2023/01/30 01:12:55;;;;;;;9.50;3.90;;;23.10;39.70;;;;;;5048219;28;20196;-84
2023/01/30 01:15:23;;;;;;;10.40;3.87;;;23.10;39.70;;;;;;5065123;28;20286;-80
2023/01/30 01:17:50;;;;;;;9.53;3.73;;;23.20;39.90;;;;;;5068153;28;20565;-77
2023/01/30 01:20:18;;;;;;;8.47;3.40;;;23.10;39.80;;;;;;5065095;28;20601;-80
2023/01/30 01:22:48;;;;;;;10.47;3.93;;;23.20;39.90;;;;;;5057998;28;20200;-85
2023/01/30 01:25:15;;;;;;;9.40;3.70;;;23.10;39.70;;;;;;5048163;28;20196;-83
2023/01/30 01:27:44;;;;;;;12.07;4.30;;;23.20;40.00;;;;;;5065903;28;20199;-72
2023/01/30 01:30:12;;;;;;;10.23;3.87;;;23.20;39.90;;;;;;5067424;28;20197;-66
2023/01/30 01:32:39;;;;;;;10.87;4.13;;;23.10;39.80;;;;;;5067602;28;20202;-74
2023/01/30 01:35:07;;;;;;;11.30;4.27;;;23.10;39.90;;;;;;5064485;28;20203;-64
2023/01/30 01:37:33;;;;;;;10.60;4.00;;;23.20;39.90;;;;;;5067575;28;20286;-67
2023/01/30 01:42:46;;;;;;;10.17;3.93;;;23.20;39.90;;;;;;5068089;28;20225;-75
2023/01/30 01:45:19;;;;;;;7.30;3.00;;;23.10;39.90;;;;;;5067584;28;20227;-68
2023/01/30 01:47:53;;;;;;;9.57;4.00;;;23.10;39.90;;;;;;5068055;28;20286;-74
2023/01/30 01:50:25;;;;;;;8.47;3.47;;;23.20;40.00;;;;;;5065698;28;20202;-66
2023/01/30 01:52:54;;;;;;;8.57;3.60;;;23.20;40.00;;;;;;5066189;28;20207;-67
2023/01/30 01:55:23;;;;;;;8.07;3.37;;;23.10;39.90;;;;;;5067286;28;20207;-65
2023/01/30 01:57:56;;;;;;;10.30;4.03;;;23.10;39.90;;;;;;5068191;28;20206;-73
2023/01/30 02:00:23;;;;;;;8.87;4.17;;;23.20;40.00;;;;;;5066748;28;20211;-70
2023/01/30 02:02:56;;;;;;;9.23;3.47;;;23.20;40.00;;;;;;5068089;28;20206;-74
2023/01/30 02:05:25;;;;;;;9.23;3.73;;;23.10;39.90;;;;;;5064939;28;20207;-70
2023/01/30 02:07:59;;;;;;;9.87;3.80;;;23.10;39.90;;;;;;5068000;28;20233;-64
2023/01/30 02:10:35;;;;;;;10.90;4.13;;;23.10;39.90;;;;;;5062426;28;20290;-85
2023/01/30 02:13:03;;;;;;;9.30;3.67;;;23.20;40.00;;;;;;5063882;28;20211;-79
2023/01/30 02:15:30;;;;;;;9.90;3.77;;;23.20;39.90;;;;;;5062365;28;20282;-74
2023/01/30 02:17:57;;;;;;;12.17;4.40;;;23.20;39.90;;;;;;5065932;28;20195;-81
2023/01/30 02:20:32;;;;;;;10.00;3.80;;;23.10;39.90;;;;;;5066469;28;20725;-82
2023/01/30 02:23:43;;;;;;;7.20;3.00;;;23.10;39.90;;;;;;5067587;28;20565;-82
2023/01/30 02:26:29;;;;;;;8.23;3.27;;;23.10;39.90;;;;;;5066191;28;20639;-80
2023/01/30 02:29:44;;;;;;;8.23;3.40;;;23.10;39.90;;;;;;5067520;28;20210;-65
2023/01/30 02:32:19;;;;;;;8.17;3.27;;;23.10;39.90;;;;;;5067564;28;20289;-87
2023/01/30 02:34:56;;;;;;;9.93;3.83;;;23.10;39.90;;;;;;5067286;28;20571;-74
2023/01/30 02:37:31;;;;;;;8.00;3.33;;;23.10;39.90;;;;;;5067496;28;20199;-78
2023/01/30 02:40:16;;;;;;;9.33;3.70;;;23.10;39.90;;;;;;5067323;28;20225;-66
2023/01/30 02:42:51;;;;;;;8.87;3.67;;;23.10;39.90;;;;;;5065384;28;20208;-64
2023/01/30 02:45:26;;;;;;;12.77;4.90;;;23.10;39.90;;;;;;5066145;28;20231;-79
2023/01/30 02:48:01;;;;;;;8.30;3.43;;;23.10;39.90;;;;;;5057828;28;20206;-84
2023/01/30 02:50:30;;;;;;;8.07;3.50;;;23.10;40.50;;;;;;5066474;28;20202;-80
2023/01/30 02:52:58;;;;;;;21.73;6.93;;;23.10;39.90;;;;;;5065331;28;20214;-83
2023/01/30 02:55:27;;;;;;;11.03;4.10;;;23.10;39.90;;;;;;5066299;28;20564;-74
2023/01/30 02:57:54;;;;;;;9.23;3.73;;;23.10;39.90;;;;;;5065233;28;20319;-82
2023/01/30 03:00:26;;;;;;;8.57;3.37;;;23.10;39.90;;;;;;5066610;28;20587;-87
2023/01/30 03:03:20;;;;;;;10.87;4.00;;;23.10;39.90;;;;;;5066366;28;20199;-87
2023/01/30 03:06:21;;;;;;;9.73;3.60;;;23.10;39.90;;;;;;5064488;28;20199;-87
2023/01/30 03:09:01;;;;;;;10.07;3.90;;;23.10;39.90;;;;;;5056105;28;20325;-76
2023/01/30 03:11:34;;;;;;;12.17;4.27;;;23.10;39.90;;;;;;5066662;28;20215;-75
2023/01/30 03:14:08;;;;;;;7.90;3.20;;;23.10;39.90;;;;;;5065114;28;20206;-87
2023/01/30 03:16:38;;;;;;;11.03;4.23;;;23.10;39.90;;;;;;5065417;28;20208;-87
2023/01/30 03:19:11;;;;;;;11.13;4.00;;;23.10;39.90;;;;;;5065992;28;20199;-88
2023/01/30 03:21:41;;;;;;;7.60;3.17;;;23.10;39.90;;;;;;5064274;28;20211;-77
2023/01/30 03:24:08;;;;;;;9.30;3.60;;;23.10;39.90;;;;;;5055935;28;20207;-70
2023/01/30 03:26:40;;;;;;;8.50;3.40;;;23.10;39.90;;;;;;5066678;28;20680;-75
2023/01/30 03:29:07;;;;;;;11.53;4.27;;;23.10;39.90;;;;;;5067124;28;20194;-77
2023/01/30 03:31:34;;;;;;;9.13;3.77;;;23.10;39.90;;;;;;5070502;28;20214;-64
2023/01/30 03:34:01;;;;;;;9.57;3.67;;;23.10;39.90;;;;;;5070680;28;20934;-64
2023/01/30 03:36:29;;;;;;;8.17;3.30;;;23.10;39.90;;;;;;5069206;28;20206;-64
2023/01/30 03:38:56;;;;;;;8.20;3.40;;;23.00;39.80;;;;;;5060517;28;20207;-70
2023/01/30 03:41:23;;;;;;;20.47;6.93;;;23.10;39.90;;;;;;5051432;28;20219;-72
2023/01/30 03:43:50;;;;;;;14.53;5.00;;;23.10;39.90;;;;;;5060319;28;20530;-67
2023/01/30 03:46:16;;;;;;;11.07;4.23;;;23.10;39.90;;;;;;5069370;28;20199;-68
2023/01/30 03:48:43;;;;;;;6.80;2.93;;;23.10;39.90;;;;;;5070238;28;20563;-72
2023/01/30 03:51:10;;;;;;;10.13;4.10;;;23.10;39.90;;;;;;5069878;28;20210;-72
2023/01/30 03:53:38;;;;;;;8.00;3.57;;;23.10;39.90;;;;;;5068715;28;20203;-75
2023/01/30 03:56:06;;;;;;;10.00;3.97;;;23.10;39.90;;;;;;5069711;28;20210;-70
2023/01/30 03:58:33;;;;;;;15.20;5.63;;;23.10;39.90;;;;;;5066644;28;20292;-64
2023/01/30 04:00:59;;;;;;;8.57;3.20;;;23.10;39.90;;;;;;5069459;28;20580;-63
2023/01/30 04:03:26;;;;;;;7.27;3.23;;;23.10;39.90;;;;;;5063777;28;20190;-64
2023/01/30 04:05:53;;;;;;;8.90;3.47;;;23.00;39.80;;;;;;5069558;28;20573;-64
2023/01/30 04:08:20;;;;;;;8.23;3.40;;;23.00;39.80;;;;;;5058731;28;20576;-64
2023/01/30 04:10:48;;;;;;;7.97;3.27;;;23.00;39.80;;;;;;5063739;28;20656;-64
2023/01/30 04:13:15;;;;;;;9.23;3.47;;;23.10;39.90;;;;;;5068611;28;20200;-66
2023/01/30 04:15:42;;;;;;;7.23;3.27;;;23.10;39.90;;;;;;5067673;28;20670;-64
2023/01/30 04:18:09;;;;;;;8.50;3.70;;;23.00;39.80;;;;;;5068709;28;20613;-63
2023/01/30 04:20:37;;;;;;;7.63;3.03;;;23.10;39.90;;;;;;5068215;28;20235;-75
2023/01/30 04:23:04;;;;;;;11.23;4.30;;;23.00;39.80;;;;;;5066041;28;20195;-77
2023/01/30 04:25:31;;;;;;;7.80;2.97;;;23.10;39.90;;;;;;5069286;28;20291;-73
2023/01/30 04:27:59;;;;;;;8.60;3.23;;;23.00;39.80;;;;;;5068527;28;20285;-63
2023/01/30 04:30:26;;;;;;;8.53;3.47;;;23.10;39.90;;;;;;5054663;28;20206;-79
2023/01/30 04:32:53;;;;;;;7.53;3.27;;;23.10;39.90;;;;;;5049584;28;20192;-63
2023/01/30 04:35:20;;;;;;;10.00;3.90;;;23.10;39.90;;;;;;5049263;28;20200;-63
2023/01/30 04:37:47;;;;;;;6.57;2.80;;;23.00;39.80;;;;;;5049625;28;20269;-64
2023/01/30 04:40:14;;;;;;;9.13;3.77;;;23.00;39.80;;;;;;5050584;28;20298;-63
2023/01/30 04:42:41;;;;;;;10.10;3.83;;;23.00;39.80;;;;;;5062805;28;20207;-64
2023/01/30 04:45:10;;;;;;;8.33;3.30;;;23.00;39.80;;;;;;5070026;28;20237;-70
2023/01/30 04:47:37;;;;;;;10.43;4.07;;;23.00;39.80;;;;;;5069184;28;20204;-64
2023/01/30 04:50:05;;;;;;;7.40;3.03;;;23.00;40.20;;;;;;5069377;28;20545;-63
2023/01/30 04:52:31;;;;;;;7.27;3.20;;;23.00;39.80;;;;;;5069429;28;20199;-63
2023/01/30 04:54:58;;;;;;;8.23;3.17;;;23.00;39.80;;;;;;5064414;28;20200;-64
2023/01/30 04:57:25;;;;;;;14.87;5.10;;;23.00;39.80;;;;;;5061805;28;20214;-63
2023/01/30 04:59:52;;;;;;;7.37;3.03;;;23.00;39.80;;;;;;5068202;28;20213;-69
2023/01/30 05:02:20;;;;;;;8.67;3.60;;;23.00;39.80;;;;;;5067283;28;20677;-76
2023/01/30 05:04:49;;;;;;;7.67;3.43;;;23.00;39.80;;;;;;5065253;28;20207;-88
2023/01/30 05:07:16;;;;;;;9.10;3.57;;;23.00;39.80;;;;;;5067847;28;20217;-88
2023/01/30 05:09:43;;;;;;;9.97;3.23;;;23.00;39.80;;;;;;5068240;28;20195;-88
2023/01/30 05:12:10;;;;;;;7.77;3.10;;;23.00;39.80;;;;;;5067627;28;20203;-89
2023/01/30 05:14:40;;;;;;;8.37;3.30;;;23.00;39.80;;;;;;5066797;28;20196;-80
2023/01/30 05:17:07;;;;;;;7.07;2.90;;;23.00;39.80;;;;;;5065762;28;20281;-84
2023/01/30 05:19:35;;;;;;;9.37;3.47;;;23.00;39.80;;;;;;5066363;28;21043;-67
2023/01/30 05:22:02;;;;;;;8.27;3.30;;;23.00;39.80;;;;;;5056762;28;20241;-63
2023/01/30 05:24:29;;;;;;;10.60;4.13;;;23.00;39.80;;;;;;5055219;28;20206;-64
2023/01/30 05:26:56;;;;;;;9.77;3.60;;;23.00;39.80;;;;;;5065518;28;20750;-64
2023/01/30 05:29:23;;;;;;;8.80;3.43;;;23.00;39.80;;;;;;5067506;28;20559;-64
2023/01/30 05:31:50;;;;;;;12.43;4.43;;;23.00;39.80;;;;;;5067363;28;20222;-63
2023/01/30 05:34:17;;;;;;;10.33;3.53;;;23.00;39.80;;;;;;5062525;28;20203;-63
2023/01/30 05:36:45;;;;;;;8.77;3.40;;;23.00;39.80;;;;;;5048897;28;20204;-63
2023/01/30 05:39:12;;;;;;;8.43;3.43;;;23.00;39.80;;;;;;5060803;28;20705;-63
2023/01/30 05:41:39;;;;;;;9.20;3.53;;;23.00;39.80;;;;;;5067519;28;20237;-67
2023/01/30 05:44:06;;;;;;;10.83;4.17;;;23.00;39.80;;;;;;5068414;28;20227;-72
2023/01/30 05:46:33;;;;;;;8.43;3.50;;;22.90;39.70;;;;;;5068388;28;20202;-73
2023/01/30 05:49:00;;;;;;;13.17;4.77;;;23.00;39.80;;;;;;5065525;28;20211;-67
2023/01/30 05:51:27;;;;;;;8.80;3.50;;;23.00;39.80;;;;;;5058517;28;20209;-65
2023/01/30 05:53:56;;;;;;;10.63;4.17;;;23.00;39.80;;;;;;5064834;28;20198;-65
2023/01/30 05:56:23;;;;;;;5.90;2.57;;;23.00;39.90;;;;;;5067185;28;20208;-82
2023/01/30 05:58:51;;;;;;;12.63;4.63;;;23.00;39.90;;;;;;5063146;28;20199;-63
2023/01/30 06:01:18;;;;;;;13.30;4.87;;;23.00;40.00;;;;;;5065495;28;20223;-63
2023/01/30 06:03:45;;;;;;;8.47;3.40;;;23.00;40.00;;;;;;5052090;28;20214;-63
2023/01/30 06:06:13;;;;;;;12.20;4.03;;;23.00;40.10;;;;;;5061124;28;20206;-64
2023/01/30 06:08:40;;;;;;;11.03;4.13;;;23.00;40.20;;;;;;5067724;28;20203;-66
2023/01/30 06:11:10;;;;;;;12.43;3.50;;;23.00;40.30;;;;;;5067031;28;20278;-65
2023/01/30 06:13:38;;;;;;;22.43;5.97;;;23.00;40.40;;;;;;5065672;28;20253;-63
2023/01/30 06:16:07;;;;;;;10.97;3.80;;;23.00;40.50;;;;;;5062949;28;20233;-63
2023/01/30 06:18:34;;;;;;;12.10;3.70;;;23.00;40.50;;;;;;5067441;28;20199;-63
2023/01/30 06:21:01;;;;;;;12.77;3.60;;;23.00;40.50;;;;;;5053833;28;20326;-81
2023/01/30 06:23:28;;;;;;;12.37;4.23;;;23.10;40.60;;;;;;5064421;28;20203;-68
2023/01/30 06:25:55;;;;;;;13.87;4.90;;;23.10;40.60;;;;;;5065353;28;20298;-66
2023/01/30 06:28:25;;;;;;;9.87;3.17;;;23.10;40.60;;;;;;5062512;28;20291;-78
2023/01/30 06:30:52;;;;;;;11.27;3.97;;;23.00;40.50;;;;;;5067268;28;20203;-78
2023/01/30 06:33:19;;;;;;;8.60;3.33;;;23.00;40.40;;;;;;5062717;28;20206;-63
2023/01/30 06:35:48;;;;;;;11.33;3.80;;;23.00;40.40;;;;;;5066806;28;20774;-81
2023/01/30 06:38:16;;;;;;;9.83;3.53;;;23.10;40.50;;;;;;5061854;28;20757;-66
2023/01/30 06:40:46;;;;;;;21.30;6.57;;;23.10;40.60;;;;;;5064902;28;20237;-61
2023/01/30 06:43:13;;;;;;;8.63;3.60;;;23.00;40.90;;;;;;5066553;28;20219;-76
2023/01/30 06:45:42;;;;;;;11.93;3.70;;;23.00;41.30;;;;;;5066995;28;20207;-76
2023/01/30 06:48:09;;;;;;;6.63;2.70;;;23.00;41.50;;;;;;5066203;28;20918;-71
2023/01/30 06:50:36;;;;;;;10.20;4.23;;;22.90;41.70;;;;;;5067232;28;20215;-63
2023/01/30 06:53:04;;;;;;;8.50;3.40;;;23.00;42.00;;;;;;5062833;28;20200;-59
2023/01/30 06:55:34;;;;;;;13.37;3.90;;;22.90;42.10;;;;;;5065174;28;20207;-68
2023/01/30 06:58:02;;;;;;;12.27;4.03;;;22.90;42.40;;;;;;5058294;28;20196;-61
2023/01/30 07:00:30;;;;;;;11.27;3.93;;;22.90;42.60;;;;;;5062869;28;20195;-77
2023/01/30 07:02:59;;;;;;;10.83;3.77;;;22.90;42.50;;;;;;5066317;28;20199;-64
2023/01/30 07:05:27;;;;;;;11.83;4.23;;;22.90;42.90;;;;;;5064741;28;20199;-76
2023/01/30 07:07:54;;;;;;;8.90;3.60;;;22.90;42.90;;;;;;5061549;28;20640;-82
2023/01/30 07:10:21;;;;;;;6.13;2.77;;;22.80;42.70;;;;;;5071394;28;20230;-78
2023/01/30 07:12:48;;;;;;;10.30;3.87;;;22.80;42.70;;;;;;5070847;28;20862;-80
2023/01/30 07:15:15;;;;;;;11.27;4.07;;;22.80;42.80;;;;;;5071040;28;20202;-83
2023/01/30 07:17:42;;;;;;;10.10;3.80;;;22.80;42.80;;;;;;5069694;28;20204;-69
2023/01/30 07:20:11;;;;;;;9.77;3.73;;;22.80;42.80;;;;;;5070868;28;20574;-78
2023/01/30 07:22:38;;;;;;;12.37;3.57;;;22.80;43.40;;;;;;5070723;28;20238;-81
2023/01/30 07:25:06;;;;;;;17.87;5.80;;;22.80;43.20;;;;;;5069729;28;20217;-70
2023/01/30 07:27:33;;;;;;;25.27;6.90;;;22.70;43.40;;;;;;5069007;28;20816;-65
2023/01/30 07:30:00;;;;;;;16.83;4.80;;;22.80;43.60;;;;;;5060010;28;20924;-83
2023/01/30 07:32:27;;;;;;;12.87;4.50;;;22.70;43.70;;;;;;5069736;28;20282;-76
2023/01/30 07:34:54;;;;;;;14.47;5.07;;;22.70;43.80;;;;;;5070097;28;20203;-69
2023/01/30 07:37:22;;;;;;;15.37;4.97;;;22.80;44.10;;;;;;5068251;28;20200;-83
2023/01/30 07:39:49;;;;;;;13.37;4.20;;;22.80;44.30;;;;;;5069789;28;20204;-76
2023/01/30 07:42:16;;;;;;;15.70;4.77;;;22.80;44.20;;;;;;5068983;28;20264;-72
2023/01/30 07:44:43;;;;;;;11.73;4.33;;;22.80;44.30;;;;;;5070032;28;20250;-77
2023/01/30 07:47:10;;;;;;;11.97;4.03;;;22.80;44.30;;;;;;5068261;28;20541;-73
2023/01/30 07:49:37;;;;;;;11.57;3.53;;;22.90;44.40;;;;;;5070685;28;20678;-76
2023/01/30 07:52:04;;;;;;;8.17;3.40;;;22.90;45.00;;;;;;5069739;28;20196;-77
2023/01/30 07:54:32;;;;;;;9.37;3.53;;;22.90;44.60;;;;;;5062320;28;20990;-83
2023/01/30 08:59:09;;;;;;;48.33;13.60;;;22.80;44.00;;;;;;5691218;23;21199;-71
2023/01/30 09:01:37;;;;;;;18.87;6.20;;;22.70;43.50;;;;;;4977008;28;20246;-74
2023/01/30 09:04:04;;;;;;;22.33;5.97;;;22.70;44.00;;;;;;4986924;28;20214;-70
2023/01/30 09:06:30;;;;;;;24.50;6.97;;;22.70;43.40;;;;;;5100780;22;20223;-74
2023/01/30 09:08:59;;;;;;;23.20;6.53;;;22.70;43.30;;;;;;5017787;28;20214;-65
2023/01/30 09:11:26;;;;;;;23.60;6.97;;;22.70;43.40;;;;;;5014189;28;20197;-65
2023/01/30 09:13:53;;;;;;;25.00;7.80;;;22.70;43.30;;;;;;5015494;28;20200;-71
2023/01/30 09:16:21;;;;;;;20.10;6.23;;;22.70;43.30;;;;;;5026627;28;20208;-66
2023/01/30 09:18:48;;;;;;;15.40;4.90;;;22.70;43.30;;;;;;5026956;28;20208;-68
2023/01/30 09:21:15;;;;;;;16.00;5.13;;;22.80;43.30;;;;;;5025470;28;20220;-68
2023/01/30 09:23:41;;;;;;;24.83;6.40;;;22.80;43.30;;;;;;5028682;28;20209;-66
2023/01/30 09:26:08;;;;;;;25.27;6.03;;;22.80;43.30;;;;;;5027451;28;20218;-62
2023/01/30 09:28:36;;;;;;;15.27;5.27;;;22.80;43.90;;;;;;5028605;28;20189;-59
2023/01/30 09:31:13;;;;;;;;;;;;;;;;;;;;;
2023/01/30 09:36:27;;;;;;;43.70;12.50;;;22.90;43.40;;;;;;5181212;22;20236;-62
2023/01/30 09:41:57;;;;;;;29.93;9.87;;;23.00;43.70;;;;;;5490253;22;21073;-70
2023/01/30 09:44:57;;;;;;;17.77;6.33;;;23.00;43.40;;;;;;5017491;23;20251;-57
2023/01/30 09:47:37;;;;;;;13.40;3.80;;;23.10;43.40;;;;;;5026555;28;20197;-65
2023/01/30 09:50:17;;;;;;;15.47;4.33;;;23.20;43.70;;;;;;5024858;28;20287;-59
2023/01/30 09:55:24;;;;;;;32.67;10.43;;;23.30;43.70;;;;;;5731849;22;20270;-79
2023/01/30 09:57:52;;;;;;;52.60;17.63;;;23.50;43.90;;;;;;5027274;22;20201;-81
2023/01/30 10:00:26;;;;;;;11.93;4.23;;;23.60;44.00;;;;;;5002988;28;20209;-76
2023/01/30 10:03:01;;;;;;;14.73;5.90;;;23.70;44.40;;;;;;5000804;28;20213;-74
2023/01/30 10:05:39;;;;;;;14.40;5.13;;;23.90;43.70;;;;;;5002448;28;20647;-75
2023/01/30 10:08:23;;;;;;;23.20;6.93;;;24.10;43.80;;;;;;5006910;28;20228;-76
2023/01/30 10:10:59;;;;;;;22.63;6.17;;;24.30;43.60;;;;;;5005418;28;20304;-74
2023/01/30 10:13:35;;;;;;;13.03;4.57;;;24.50;44.00;;;;;;5007499;28;20578;-74
2023/01/30 10:16:10;;;;;;;16.73;5.50;;;24.70;43.30;;;;;;5007898;28;20292;-74
2023/01/30 10:18:56;;;;;;;13.67;5.23;;;24.90;43.20;;;;;;5007311;28;20189;-77
2023/01/30 10:21:32;;;;;;;12.73;4.80;;;25.10;42.80;;;;;;5007306;28;20271;-77
2023/01/30 10:24:20;;;;;;;14.40;5.20;;;25.30;42.70;;;;;;5007954;28;20200;-79
2023/01/30 10:26:49;;;;;;;14.73;5.00;;;25.50;42.40;;;;;;5007187;28;20641;-77
2023/01/30 10:29:21;;;;;;;15.97;5.30;;;25.70;42.50;;;;;;5004846;28;20617;-75
2023/01/30 10:31:52;;;;;;;10.47;4.43;;;25.90;42.00;;;;;;4998347;28;20209;-78
2023/01/30 10:34:22;;;;;;;12.63;5.27;;;26.10;42.10;;;;;;5006082;28;20210;-78
2023/01/30 10:36:54;;;;;;;13.47;4.77;;;26.20;41.90;;;;;;5007212;28;20205;-78
2023/01/30 10:39:28;;;;;;;15.30;4.20;;;26.40;41.40;;;;;;5005150;28;20202;-73
2023/01/30 10:42:07;;;;;;;14.70;5.50;;;26.60;41.30;;;;;;5003953;28;20237;-78
2023/01/30 10:44:34;;;;;;;32.53;20.97;;;26.70;41.00;;;;;;5000537;28;20524;-72
2023/01/30 10:47:20;;;;;;;46.88;38.08;;;26.90;41.00;;;;;;5000847;28;20943;-74
2023/01/30 10:49:51;;;;;;;28.23;19.30;;;26.90;39.80;;;;;;5006507;28;20217;-75
2023/01/30 10:52:30;;;;;;;22.07;14.30;;;27.10;40.90;;;;;;5006275;28;20220;-76
2023/01/30 10:55:04;;;;;;;20.37;9.73;;;27.10;40.20;;;;;;5007263;28;20209;-77
2023/01/30 10:57:47;;;;;;;16.47;7.70;;;27.20;40.10;;;;;;5007032;28;20221;-77
2023/01/30 11:00:24;;;;;;;22.57;8.17;;;27.20;39.60;;;;;;4985203;28;20202;-76
2023/01/30 11:03:08;;;;;;;17.07;6.80;;;27.10;39.50;;;;;;4984246;28;20324;-79
2023/01/30 11:05:42;;;;;;;13.97;6.00;;;27.10;39.50;;;;;;4983500;28;20228;-74
2023/01/30 11:08:18;;;;;;;14.03;5.93;;;27.10;39.50;;;;;;5001069;28;20221;-71
2023/01/30 11:10:45;;;;;;;12.70;5.27;;;27.00;39.50;;;;;;4985130;28;20206;-74
2023/01/30 11:13:18;;;;;;;10.00;4.87;;;26.90;39.70;;;;;;4986483;28;20903;-71
2023/01/30 11:15:48;;;;;;;17.73;6.40;;;26.80;39.40;;;;;;4987081;28;20206;-71
2023/01/30 11:18:16;;;;;;;13.10;5.33;;;26.80;40.00;;;;;;4976944;28;20210;-72
2023/01/30 11:20:45;;;;;;;17.60;6.37;;;26.70;40.00;;;;;;4984189;28;20205;-72
2023/01/30 11:23:24;;;;;;;14.37;5.50;;;26.60;40.00;;;;;;4986187;28;20595;-71
2023/01/30 11:25:54;;;;;;;12.87;4.93;;;26.50;40.00;;;;;;4986531;28;20206;-70
2023/01/30 11:28:24;;;;;;;13.23;4.60;;;26.40;40.10;;;;;;4985770;28;20206;-71
2023/01/30 11:30:54;;;;;;;12.87;5.20;;;26.30;40.30;;;;;;4986323;28;20210;-71
2023/01/30 11:33:24;;;;;;;13.27;4.97;;;26.30;40.50;;;;;;4985389;28;20217;-73
2023/01/30 11:35:56;;;;;;;18.33;6.87;;;26.20;40.50;;;;;;4983708;28;20206;-70
2023/01/30 11:38:25;;;;;;;13.60;5.43;;;26.10;40.60;;;;;;4985310;28;20210;-70
2023/01/30 11:41:03;;;;;;;11.03;4.87;;;26.10;40.80;;;;;;4984222;28;20221;-70
2023/01/30 11:43:32;;;;;;;12.60;5.17;;;26.00;40.80;;;;;;4996813;28;20226;-71
2023/01/30 11:46:00;;;;;;;13.87;5.07;;;25.90;40.60;;;;;;4986704;28;20221;-72
2023/01/30 11:48:29;;;;;;;13.70;5.13;;;25.90;40.80;;;;;;4987431;28;20210;-71
2023/01/30 11:51:00;;;;;;;10.77;4.73;;;25.80;41.00;;;;;;4987743;28;20199;-71
2023/01/30 11:53:33;;;;;;;12.53;4.70;;;25.80;41.00;;;;;;4988964;28;20214;-78
2023/01/30 11:56:06;;;;;;;17.80;6.37;;;25.80;41.10;;;;;;4984766;28;20202;-81
2023/01/30 11:58:36;;;;;;;13.97;5.37;;;25.80;41.20;;;;;;4990510;28;20245;-80
2023/01/30 12:01:04;;;;;;;13.30;4.77;;;25.70;41.30;;;;;;4991562;28;20207;-79
2023/01/30 12:03:33;;;;;;;12.47;4.87;;;25.70;41.20;;;;;;4991397;28;20232;-81
2023/01/30 12:06:00;;;;;;;14.47;4.87;;;25.60;41.20;;;;;;4991098;28;20728;-81
2023/01/30 12:08:32;;;;;;;11.13;4.40;;;25.60;41.20;;;;;;5009025;28;20209;-75
2023/01/30 12:11:01;;;;;;;10.97;4.37;;;25.60;41.10;;;;;;5010299;28;20268;-81
2023/01/30 12:13:38;;;;;;;12.47;5.03;;;25.60;41.00;;;;;;4997627;28;20226;-71
2023/01/30 12:16:19;;;;;;;12.57;4.73;;;25.60;41.30;;;;;;4979286;28;20213;-71
2023/01/30 12:18:54;;;;;;;17.53;6.13;;;25.50;41.30;;;;;;4988671;28;20209;-71
2023/01/30 12:21:31;;;;;;;15.27;5.33;;;25.50;41.50;;;;;;4982748;28;20206;-72
2023/01/30 12:24:05;;;;;;;11.20;4.00;;;25.50;41.30;;;;;;4989102;28;20222;-76
2023/01/30 12:26:37;;;;;;;18.47;6.47;;;25.50;41.30;;;;;;4987201;28;20210;-74
2023/01/30 12:29:19;;;;;;;10.70;4.00;;;25.50;41.50;;;;;;4990494;28;20210;-71
2023/01/30 12:31:49;;;;;;;14.90;5.57;;;25.50;41.70;;;;;;4988390;28;20209;-74
2023/01/30 12:34:16;;;;;;;18.30;6.27;;;25.40;41.50;;;;;;4989014;28;20210;-79
2023/01/30 12:36:50;;;;;;;9.23;4.03;;;25.40;41.50;;;;;;4989460;28;20206;-77
2023/01/30 12:39:36;;;;;;;11.60;4.23;;;25.40;41.30;;;;;;4988917;28;20209;-74
2023/01/30 12:42:29;;;;;;;14.33;5.00;;;25.40;41.60;;;;;;4985753;28;20206;-78
2023/01/30 12:45:06;;;;;;;11.60;4.67;;;25.40;41.40;;;;;;4987804;28;20566;-77
2023/01/30 12:47:50;;;;;;;13.63;5.37;;;25.40;41.70;;;;;;4985975;28;20212;-75
2023/01/30 12:50:29;;;;;;;16.37;4.63;;;25.40;41.60;;;;;;4984169;28;20654;-77
2023/01/30 12:53:26;;;;;;;15.77;5.67;;;25.40;41.60;;;;;;4976576;28;20202;-78
2023/01/30 12:56:12;;;;;;;16.03;5.30;;;25.40;41.60;;;;;;4980069;28;20213;-78
2023/01/30 12:58:45;;;;;;;18.27;6.10;;;25.30;41.60;;;;;;4971991;28;20245;-76
2023/01/30 13:01:23;;;;;;;12.63;4.63;;;25.30;41.60;;;;;;4989337;28;20218;-80
2023/01/30 13:03:58;;;;;;;12.13;4.33;;;25.40;41.60;;;;;;4988670;28;20238;-78
2023/01/30 13:06:43;;;;;;;11.70;3.83;;;25.30;41.60;;;;;;4988027;28;20206;-77
2023/01/30 13:09:30;;;;;;;11.13;4.27;;;25.30;41.60;;;;;;4987511;28;20202;-79
2023/01/30 13:12:01;;;;;;;13.07;4.30;;;25.30;41.70;;;;;;4989453;28;20214;-77
2023/01/30 13:14:37;;;;;;;11.93;4.20;;;25.40;42.30;;;;;;4989352;28;20529;-78
2023/01/30 13:17:31;;;;;;;12.90;4.57;;;25.30;41.60;;;;;;4989440;28;20205;-79
2023/01/30 13:20:05;;;;;;;12.33;4.33;;;25.30;41.90;;;;;;4984471;28;20294;-78
2023/01/30 13:22:41;;;;;;;10.47;4.23;;;25.30;41.60;;;;;;4988935;28;20230;-78
2023/01/30 13:25:20;;;;;;;15.67;4.47;;;25.30;41.60;;;;;;4988259;28;20206;-79
2023/01/30 13:28:01;;;;;;;14.63;5.13;;;25.40;41.80;;;;;;4985589;28;20573;-79
2023/01/30 13:30:30;;;;;;;9.77;3.83;;;25.30;42.10;;;;;;4987647;28;20265;-77
2023/01/30 13:33:05;;;;;;;12.93;4.27;;;25.30;41.60;;;;;;4987603;28;20202;-78
2023/01/30 13:35:41;;;;;;;13.93;5.17;;;25.30;41.90;;;;;;4987717;28;20212;-79
2023/01/30 13:38:15;;;;;;;11.27;4.57;;;25.30;42.00;;;;;;4987226;28;20194;-78
2023/01/30 13:40:44;;;;;;;17.83;6.27;;;25.40;42.20;;;;;;4985298;28;20205;-75
2023/01/30 13:43:19;;;;;;;15.37;5.53;;;25.40;42.40;;;;;;4986018;28;20218;-77
2023/01/30 13:45:48;;;;;;;25.10;8.43;;;25.40;42.40;;;;;;4975946;28;20700;-78
2023/01/30 13:48:32;;;;;;;23.60;8.13;;;25.40;42.40;;;;;;4968021;28;20207;-79
2023/01/30 13:51:13;;;;;;;11.53;4.30;;;25.40;42.50;;;;;;4983562;28;20202;-77
2023/01/30 13:53:46;;;;;;;12.57;4.73;;;25.40;42.50;;;;;;4988603;28;20213;-79
2023/01/30 13:56:20;;;;;;;14.00;5.17;;;25.40;42.50;;;;;;4985870;28;20206;-70
2023/01/30 13:58:53;;;;;;;15.57;5.03;;;25.40;42.40;;;;;;4986250;28;20986;-75
2023/01/30 14:01:21;;;;;;;9.70;3.73;;;25.40;42.40;;;;;;4998102;28;20212;-74
2023/01/30 14:03:50;;;;;;;14.73;5.23;;;25.40;42.50;;;;;;4993271;28;20697;-74
2023/01/30 14:06:44;;;;;;;13.73;5.10;;;25.40;42.50;;;;;;4986435;28;20213;-73
2023/01/30 14:09:20;;;;;;;14.63;5.30;;;25.40;42.70;;;;;;4985661;28;20304;-72
2023/01/30 14:11:55;;;;;;;16.63;6.00;;;25.50;42.40;;;;;;4980273;28;20206;-72
2023/01/30 14:14:31;;;;;;;16.50;5.43;;;25.50;42.50;;;;;;4983516;28;20684;-70
2023/01/30 14:17:11;;;;;;;17.37;5.50;;;25.50;42.30;;;;;;4983951;28;20205;-71
2023/01/30 14:19:56;;;;;;;9.93;3.83;;;25.50;42.40;;;;;;4985342;28;20976;-71